sensor_id;sensor_type;location;lat;lon;timestamp;P1;durP1;ratioP1;P2;durP2;ratioP2
4547;SDS011;2286;51.570;7.090;2023-12-20T00:01:07;0.90;;;0.90;;
4547;SDS011;2286;51.570;7.090;2023-12-20T00:03:34;0.60;;;0.60;;
4547;SDS011;2286;51.570;7.090;2023-12-20T00:06:01;1.73;;;1.20;;
4547;SDS011;2286;51.570;7.090;2023-12-20T00:08:30;0.30;;;0.30;;
4547;SDS011;2286;51.570;7.090;2023-12-20T00:10:57;0.30;;;0.30;;
4547;SDS011;2286;51.570;7.090;2023-12-20T00:13:24;0.40;;;0.40;;
4547;SDS011;2286;51.570;7.090;2023-12-20T00:15:51;0.30;;;0.30;;
4547;SDS011;2286;51.570;7.090;2023-12-20T00:18:18;0.40;;;0.40;;
4547;SDS011;2286;51.570;7.090;2023-12-20T00:20:45;2.37;;;2.23;;
4547;SDS011;2286;51.570;7.090;2023-12-20T00:23:12;0.30;;;0.30;;
4547;SDS011;2286;51.570;7.090;2023-12-20T00:25:41;0.40;;;0.40;;
4547;SDS011;2286;51.570;7.090;2023-12-20T00:28:08;1.43;;;1.33;;
4547;SDS011;2286;51.570;7.090;2023-12-20T00:30:35;0.40;;;0.40;;
4547;SDS011;2286;51.570;7.090;2023-12-20T00:33:02;0.40;;;0.40;;
4547;SDS011;2286;51.570;7.090;2023-12-20T00:35:29;0.47;;;0.47;;
4547;SDS011;2286;51.570;7.090;2023-12-20T00:37:57;8.90;;;1.33;;
4547;SDS011;2286;51.570;7.090;2023-12-20T00:40:24;0.40;;;0.40;;
4547;SDS011;2286;51.570;7.090;2023-12-20T00:42:53;0.50;;;0.50;;
4547;SDS011;2286;51.570;7.090;2023-12-20T00:45:20;2.30;;;1.13;;
4547;SDS011;2286;51.570;7.090;2023-12-20T00:47:47;0.40;;;0.40;;
4547;SDS011;2286;51.570;7.090;2023-12-20T00:50:14;1.50;;;1.40;;
4547;SDS011;2286;51.570;7.090;2023-12-20T00:52:41;0.30;;;0.30;;
4547;SDS011;2286;51.570;7.090;2023-12-20T00:55:08;0.50;;;0.50;;
4547;SDS011;2286;51.570;7.090;2023-12-20T00:57:35;1.10;;;1.10;;
4547;SDS011;2286;51.570;7.090;2023-12-20T01:00:04;0.40;;;0.40;;
4547;SDS011;2286;51.570;7.090;2023-12-20T01:02:32;1.90;;;1.07;;
4547;SDS011;2286;51.570;7.090;2023-12-20T01:04:59;0.60;;;0.60;;
4547;SDS011;2286;51.570;7.090;2023-12-20T01:07:26;0.70;;;0.70;;
4547;SDS011;2286;51.570;7.090;2023-12-20T01:09:53;0.50;;;0.50;;
4547;SDS011;2286;51.570;7.090;2023-12-20T01:12:21;1.70;;;1.60;;
4547;SDS011;2286;51.570;7.090;2023-12-20T01:14:48;1.63;;;1.53;;
4547;SDS011;2286;51.570;7.090;2023-12-20T01:17:16;0.97;;;0.90;;
4547;SDS011;2286;51.570;7.090;2023-12-20T01:19:43;17.80;;;2.00;;
4547;SDS011;2286;51.570;7.090;2023-12-20T01:22:10;0.70;;;0.70;;
4547;SDS011;2286;51.570;7.090;2023-12-20T01:24:37;0.60;;;0.60;;
4547;SDS011;2286;51.570;7.090;2023-12-20T01:27:04;1.33;;;1.33;;
4547;SDS011;2286;51.570;7.090;2023-12-20T01:29:31;0.73;;;0.73;;
4547;SDS011;2286;51.570;7.090;2023-12-20T01:31:58;0.30;;;0.30;;
4547;SDS011;2286;51.570;7.090;2023-12-20T01:34:27;0.90;;;0.83;;
4547;SDS011;2286;51.570;7.090;2023-12-20T01:36:54;0.60;;;0.60;;
4547;SDS011;2286;51.570;7.090;2023-12-20T01:39:21;1.13;;;1.13;;
4547;SDS011;2286;51.570;7.090;2023-12-20T01:41:48;0.60;;;0.60;;
4547;SDS011;2286;51.570;7.090;2023-12-20T01:44:15;0.50;;;0.50;;
4547;SDS011;2286;51.570;7.090;2023-12-20T01:46:42;1.47;;;1.37;;
4547;SDS011;2286;51.570;7.090;2023-12-20T01:49:09;0.40;;;0.40;;
4547;SDS011;2286;51.570;7.090;2023-12-20T01:51:37;0.70;;;0.60;;
4547;SDS011;2286;51.570;7.090;2023-12-20T01:54:05;0.40;;;0.40;;
4547;SDS011;2286;51.570;7.090;2023-12-20T01:56:32;1.70;;;1.67;;
4547;SDS011;2286;51.570;7.090;2023-12-20T01:59:00;1.67;;;1.67;;
4547;SDS011;2286;51.570;7.090;2023-12-20T02:01:29;0.30;;;0.30;;
4547;SDS011;2286;51.570;7.090;2023-12-20T02:03:57;0.40;;;0.40;;
4547;SDS011;2286;51.570;7.090;2023-12-20T02:06:25;1.30;;;0.83;;
4547;SDS011;2286;51.570;7.090;2023-12-20T02:08:58;2.07;;;1.13;;
4547;SDS011;2286;51.570;7.090;2023-12-20T02:11:25;0.30;;;0.30;;
4547;SDS011;2286;51.570;7.090;2023-12-20T02:13:53;0.30;;;0.30;;
4547;SDS011;2286;51.570;7.090;2023-12-20T02:16:20;0.43;;;0.43;;
4547;SDS011;2286;51.570;7.090;2023-12-20T02:18:47;1.73;;;0.80;;
4547;SDS011;2286;51.570;7.090;2023-12-20T02:21:14;0.47;;;0.47;;
4547;SDS011;2286;51.570;7.090;2023-12-20T02:23:43;0.50;;;0.50;;
4547;SDS011;2286;51.570;7.090;2023-12-20T02:26:09;0.30;;;0.30;;
4547;SDS011;2286;51.570;7.090;2023-12-20T02:28:38;0.40;;;0.40;;
4547;SDS011;2286;51.570;7.090;2023-12-20T02:31:05;2.30;;;2.20;;
4547;SDS011;2286;51.570;7.090;2023-12-20T02:33:32;1.77;;;1.67;;
4547;SDS011;2286;51.570;7.090;2023-12-20T02:35:59;9.47;;;1.13;;
4547;SDS011;2286;51.570;7.090;2023-12-20T02:38:26;0.40;;;0.40;;
4547;SDS011;2286;51.570;7.090;2023-12-20T02:40:54;0.40;;;0.40;;
4547;SDS011;2286;51.570;7.090;2023-12-20T02:43:21;2.57;;;0.80;;
4547;SDS011;2286;51.570;7.090;2023-12-20T02:45:48;0.37;;;0.37;;
4547;SDS011;2286;51.570;7.090;2023-12-20T02:48:15;0.60;;;0.60;;
4547;SDS011;2286;51.570;7.090;2023-12-20T02:50:42;3.07;;;1.00;;
4547;SDS011;2286;51.570;7.090;2023-12-20T02:53:09;0.57;;;0.57;;
4547;SDS011;2286;51.570;7.090;2023-12-20T02:55:36;0.40;;;0.40;;
4547;SDS011;2286;51.570;7.090;2023-12-20T02:58:05;0.30;;;0.30;;
4547;SDS011;2286;51.570;7.090;2023-12-20T03:00:32;0.83;;;0.83;;
4547;SDS011;2286;51.570;7.090;2023-12-20T03:02:59;2.10;;;1.13;;
4547;SDS011;2286;51.570;7.090;2023-12-20T03:05:26;3.97;;;2.77;;
4547;SDS011;2286;51.570;7.090;2023-12-20T03:07:53;0.53;;;0.53;;
4547;SDS011;2286;51.570;7.090;2023-12-20T03:10:20;1.03;;;0.53;;
4547;SDS011;2286;51.570;7.090;2023-12-20T03:12:48;2.30;;;1.00;;
4547;SDS011;2286;51.570;7.090;2023-12-20T03:15:17;0.40;;;0.40;;
4547;SDS011;2286;51.570;7.090;2023-12-20T03:17:44;2.50;;;1.50;;
4547;SDS011;2286;51.570;7.090;2023-12-20T03:20:11;1.80;;;1.70;;
4547;SDS011;2286;51.570;7.090;2023-12-20T03:22:38;1.37;;;1.23;;
4547;SDS011;2286;51.570;7.090;2023-12-20T03:25:05;0.57;;;0.57;;
4547;SDS011;2286;51.570;7.090;2023-12-20T03:27:33;1.40;;;1.33;;
4547;SDS011;2286;51.570;7.090;2023-12-20T03:30:00;3.60;;;2.20;;
4547;SDS011;2286;51.570;7.090;2023-12-20T03:32:29;0.30;;;0.30;;
4547;SDS011;2286;51.570;7.090;2023-12-20T03:34:56;1.40;;;1.40;;
4547;SDS011;2286;51.570;7.090;2023-12-20T03:37:23;0.70;;;0.70;;
4547;SDS011;2286;51.570;7.090;2023-12-20T03:39:50;0.30;;;0.30;;
4547;SDS011;2286;51.570;7.090;2023-12-20T03:42:17;1.23;;;1.17;;
4547;SDS011;2286;51.570;7.090;2023-12-20T03:44:44;0.50;;;0.50;;
4547;SDS011;2286;51.570;7.090;2023-12-20T03:47:11;0.40;;;0.40;;
4547;SDS011;2286;51.570;7.090;2023-12-20T03:49:39;0.40;;;0.40;;
4547;SDS011;2286;51.570;7.090;2023-12-20T03:52:06;4.00;;;1.80;;
4547;SDS011;2286;51.570;7.090;2023-12-20T03:54:34;0.40;;;0.40;;
4547;SDS011;2286;51.570;7.090;2023-12-20T03:57:01;0.30;;;0.30;;
4547;SDS011;2286;51.570;7.090;2023-12-20T03:59:29;0.30;;;0.30;;
4547;SDS011;2286;51.570;7.090;2023-12-20T04:01:56;0.63;;;0.63;;
4547;SDS011;2286;51.570;7.090;2023-12-20T04:04:23;0.73;;;0.73;;
4547;SDS011;2286;51.570;7.090;2023-12-20T04:06:51;1.53;;;1.13;;
4547;SDS011;2286;51.570;7.090;2023-12-20T04:09:18;0.30;;;0.30;;
4547;SDS011;2286;51.570;7.090;2023-12-20T04:11:45;0.30;;;0.30;;
4547;SDS011;2286;51.570;7.090;2023-12-20T04:14:12;0.30;;;0.30;;
4547;SDS011;2286;51.570;7.090;2023-12-20T04:16:39;0.30;;;0.30;;
4547;SDS011;2286;51.570;7.090;2023-12-20T04:19:07;0.43;;;0.40;;
4547;SDS011;2286;51.570;7.090;2023-12-20T04:21:34;0.63;;;0.63;;
4547;SDS011;2286;51.570;7.090;2023-12-20T04:24:03;0.67;;;0.67;;
4547;SDS011;2286;51.570;7.090;2023-12-20T04:26:30;0.30;;;0.30;;
4547;SDS011;2286;51.570;7.090;2023-12-20T04:28:57;0.60;;;0.60;;
4547;SDS011;2286;51.570;7.090;2023-12-20T04:31:24;0.40;;;0.40;;
4547;SDS011;2286;51.570;7.090;2023-12-20T04:33:52;1.83;;;1.67;;
4547;SDS011;2286;51.570;7.090;2023-12-20T04:36:19;0.30;;;0.30;;
4547;SDS011;2286;51.570;7.090;2023-12-20T04:38:46;0.60;;;0.60;;
4547;SDS011;2286;51.570;7.090;2023-12-20T04:41:14;0.40;;;0.40;;
4547;SDS011;2286;51.570;7.090;2023-12-20T04:43:43;0.57;;;0.57;;
4547;SDS011;2286;51.570;7.090;2023-12-20T04:46:11;0.83;;;0.83;;
4547;SDS011;2286;51.570;7.090;2023-12-20T04:48:38;0.40;;;0.40;;
4547;SDS011;2286;51.570;7.090;2023-12-20T04:51:05;0.30;;;0.30;;
4547;SDS011;2286;51.570;7.090;2023-12-20T04:53:32;0.30;;;0.30;;
4547;SDS011;2286;51.570;7.090;2023-12-20T04:55:59;0.73;;;0.73;;
4547;SDS011;2286;51.570;7.090;2023-12-20T04:58:28;0.47;;;0.47;;
4547;SDS011;2286;51.570;7.090;2023-12-20T05:00:55;0.40;;;0.40;;
4547;SDS011;2286;51.570;7.090;2023-12-20T05:03:22;1.63;;;1.63;;
4547;SDS011;2286;51.570;7.090;2023-12-20T05:05:49;0.40;;;0.40;;
4547;SDS011;2286;51.570;7.090;2023-12-20T05:08:16;0.30;;;0.30;;
4547;SDS011;2286;51.570;7.090;2023-12-20T05:10:43;18.07;;;10.90;;
4547;SDS011;2286;51.570;7.090;2023-12-20T05:13:10;23.23;;;11.50;;
4547;SDS011;2286;51.570;7.090;2023-12-20T05:15:38;21.97;;;10.13;;
4547;SDS011;2286;51.570;7.090;2023-12-20T05:18:06;31.07;;;11.13;;
4547;SDS011;2286;51.570;7.090;2023-12-20T05:20:33;23.63;;;10.40;;
4547;SDS011;2286;51.570;7.090;2023-12-20T05:23:01;21.47;;;10.77;;
4547;SDS011;2286;51.570;7.090;2023-12-20T05:25:27;20.60;;;10.97;;
4547;SDS011;2286;51.570;7.090;2023-12-20T05:27:55;26.03;;;11.37;;
4547;SDS011;2286;51.570;7.090;2023-12-20T05:30:22;24.33;;;11.73;;
4547;SDS011;2286;51.570;7.090;2023-12-20T05:32:50;21.43;;;10.90;;
4547;SDS011;2286;51.570;7.090;2023-12-20T05:35:17;25.87;;;11.87;;
4547;SDS011;2286;51.570;7.090;2023-12-20T05:37:44;28.33;;;10.47;;
4547;SDS011;2286;51.570;7.090;2023-12-20T05:40:11;21.97;;;11.10;;
4547;SDS011;2286;51.570;7.090;2023-12-20T05:42:39;25.67;;;11.40;;
4547;SDS011;2286;51.570;7.090;2023-12-20T05:45:06;26.23;;;12.00;;
4547;SDS011;2286;51.570;7.090;2023-12-20T05:47:33;18.93;;;10.50;;
4547;SDS011;2286;51.570;7.090;2023-12-20T05:50:02;25.90;;;12.07;;
4547;SDS011;2286;51.570;7.090;2023-12-20T05:52:29;25.60;;;12.80;;
4547;SDS011;2286;51.570;7.090;2023-12-20T05:54:56;26.07;;;14.10;;
4547;SDS011;2286;51.570;7.090;2023-12-20T05:57:26;18.60;;;12.40;;
4547;SDS011;2286;51.570;7.090;2023-12-20T05:59:53;28.00;;;13.57;;
4547;SDS011;2286;51.570;7.090;2023-12-20T06:02:20;30.17;;;12.60;;
4547;SDS011;2286;51.570;7.090;2023-12-20T06:04:47;29.40;;;12.80;;
4547;SDS011;2286;51.570;7.090;2023-12-20T06:07:16;24.50;;;13.03;;
4547;SDS011;2286;51.570;7.090;2023-12-20T06:09:43;26.60;;;12.57;;
4547;SDS011;2286;51.570;7.090;2023-12-20T06:12:10;33.53;;;13.17;;
4547;SDS011;2286;51.570;7.090;2023-12-20T06:14:37;30.13;;;11.77;;
4547;SDS011;2286;51.570;7.090;2023-12-20T06:17:04;27.30;;;11.30;;
4547;SDS011;2286;51.570;7.090;2023-12-20T06:19:32;26.67;;;12.87;;
4547;SDS011;2286;51.570;7.090;2023-12-20T06:21:59;35.60;;;14.30;;
4547;SDS011;2286;51.570;7.090;2023-12-20T06:24:27;26.63;;;12.43;;
4547;SDS011;2286;51.570;7.090;2023-12-20T06:26:55;23.13;;;12.30;;
4547;SDS011;2286;51.570;7.090;2023-12-20T06:29:22;29.30;;;13.40;;
4547;SDS011;2286;51.570;7.090;2023-12-20T06:31:48;22.83;;;12.57;;
4547;SDS011;2286;51.570;7.090;2023-12-20T06:34:16;22.83;;;10.93;;
4547;SDS011;2286;51.570;7.090;2023-12-20T06:36:43;19.63;;;11.27;;
4547;SDS011;2286;51.570;7.090;2023-12-20T06:39:10;24.67;;;11.40;;
4547;SDS011;2286;51.570;7.090;2023-12-20T06:41:39;23.07;;;11.83;;
4547;SDS011;2286;51.570;7.090;2023-12-20T06:44:08;18.30;;;11.40;;
4547;SDS011;2286;51.570;7.090;2023-12-20T06:46:35;34.47;;;13.43;;
4547;SDS011;2286;51.570;7.090;2023-12-20T06:49:02;37.60;;;14.70;;
4547;SDS011;2286;51.570;7.090;2023-12-20T06:51:29;27.00;;;13.20;;
4547;SDS011;2286;51.570;7.090;2023-12-20T06:53:56;24.80;;;13.20;;
4547;SDS011;2286;51.570;7.090;2023-12-20T06:56:23;27.00;;;13.70;;
4547;SDS011;2286;51.570;7.090;2023-12-20T06:58:51;24.67;;;12.60;;
4547;SDS011;2286;51.570;7.090;2023-12-20T07:01:18;22.80;;;13.23;;
4547;SDS011;2286;51.570;7.090;2023-12-20T07:03:45;25.83;;;12.67;;
4547;SDS011;2286;51.570;7.090;2023-12-20T07:06:12;23.80;;;12.93;;
4547;SDS011;2286;51.570;7.090;2023-12-20T07:08:41;21.00;;;12.50;;
4547;SDS011;2286;51.570;7.090;2023-12-20T07:11:08;24.23;;;12.37;;
4547;SDS011;2286;51.570;7.090;2023-12-20T07:13:35;23.30;;;10.90;;
4547;SDS011;2286;51.570;7.090;2023-12-20T07:16:04;21.00;;;12.67;;
4547;SDS011;2286;51.570;7.090;2023-12-20T07:18:31;18.90;;;10.77;;
4547;SDS011;2286;51.570;7.090;2023-12-20T07:20:58;20.30;;;11.27;;
4547;SDS011;2286;51.570;7.090;2023-12-20T07:23:26;16.90;;;11.47;;
4547;SDS011;2286;51.570;7.090;2023-12-20T07:25:53;22.93;;;11.30;;
4547;SDS011;2286;51.570;7.090;2023-12-20T07:28:20;28.53;;;10.97;;
4547;SDS011;2286;51.570;7.090;2023-12-20T07:30:47;25.43;;;12.37;;
4547;SDS011;2286;51.570;7.090;2023-12-20T07:33:15;21.10;;;10.80;;
4547;SDS011;2286;51.570;7.090;2023-12-20T07:35:42;24.60;;;11.10;;
4547;SDS011;2286;51.570;7.090;2023-12-20T07:38:10;23.03;;;10.30;;
4547;SDS011;2286;51.570;7.090;2023-12-20T07:40:38;22.07;;;10.43;;
4547;SDS011;2286;51.570;7.090;2023-12-20T07:43:05;24.03;;;10.60;;
4547;SDS011;2286;51.570;7.090;2023-12-20T07:45:32;18.63;;;9.57;;
4547;SDS011;2286;51.570;7.090;2023-12-20T07:47:59;27.23;;;11.80;;
4547;SDS011;2286;51.570;7.090;2023-12-20T07:50:27;17.53;;;10.07;;
4547;SDS011;2286;51.570;7.090;2023-12-20T07:52:54;21.80;;;10.00;;
4547;SDS011;2286;51.570;7.090;2023-12-20T07:55:21;19.33;;;9.43;;
4547;SDS011;2286;51.570;7.090;2023-12-20T07:57:48;20.07;;;9.90;;
4547;SDS011;2286;51.570;7.090;2023-12-20T08:00:15;21.90;;;8.97;;
4547;SDS011;2286;51.570;7.090;2023-12-20T08:02:43;22.13;;;8.90;;
4547;SDS011;2286;51.570;7.090;2023-12-20T08:05:10;18.37;;;7.90;;
4547;SDS011;2286;51.570;7.090;2023-12-20T08:07:40;17.43;;;9.00;;
4547;SDS011;2286;51.570;7.090;2023-12-20T08:10:07;20.63;;;8.93;;
4547;SDS011;2286;51.570;7.090;2023-12-20T08:12:34;18.70;;;8.33;;
4547;SDS011;2286;51.570;7.090;2023-12-20T08:15:01;18.93;;;9.07;;
4547;SDS011;2286;51.570;7.090;2023-12-20T08:17:29;21.03;;;9.27;;
4547;SDS011;2286;51.570;7.090;2023-12-20T08:19:56;19.33;;;8.00;;
4547;SDS011;2286;51.570;7.090;2023-12-20T08:22:23;18.80;;;8.50;;
4547;SDS011;2286;51.570;7.090;2023-12-20T08:24:52;13.03;;;8.67;;
4547;SDS011;2286;51.570;7.090;2023-12-20T08:27:19;20.10;;;9.13;;
4547;SDS011;2286;51.570;7.090;2023-12-20T08:29:46;15.47;;;8.00;;
4547;SDS011;2286;51.570;7.090;2023-12-20T08:32:14;20.20;;;8.37;;
4547;SDS011;2286;51.570;7.090;2023-12-20T08:34:41;27.23;;;8.70;;
4547;SDS011;2286;51.570;7.090;2023-12-20T08:37:08;19.53;;;8.10;;
4547;SDS011;2286;51.570;7.090;2023-12-20T08:39:35;20.70;;;7.70;;
4547;SDS011;2286;51.570;7.090;2023-12-20T08:42:04;21.30;;;8.43;;
4547;SDS011;2286;51.570;7.090;2023-12-20T08:44:31;21.07;;;8.00;;
4547;SDS011;2286;51.570;7.090;2023-12-20T08:46:58;18.30;;;7.90;;
4547;SDS011;2286;51.570;7.090;2023-12-20T08:49:25;19.27;;;7.67;;
4547;SDS011;2286;51.570;7.090;2023-12-20T08:51:53;13.50;;;6.87;;
4547;SDS011;2286;51.570;7.090;2023-12-20T08:54:20;12.40;;;7.00;;
4547;SDS011;2286;51.570;7.090;2023-12-20T08:56:47;20.23;;;7.93;;
4547;SDS011;2286;51.570;7.090;2023-12-20T08:59:15;17.53;;;7.00;;
4547;SDS011;2286;51.570;7.090;2023-12-20T09:01:43;21.93;;;8.90;;
4547;SDS011;2286;51.570;7.090;2023-12-20T09:04:11;14.63;;;6.17;;
4547;SDS011;2286;51.570;7.090;2023-12-20T09:06:38;17.60;;;6.43;;
4547;SDS011;2286;51.570;7.090;2023-12-20T09:09:05;18.23;;;7.30;;
4547;SDS011;2286;51.570;7.090;2023-12-20T09:11:35;20.20;;;7.23;;
4547;SDS011;2286;51.570;7.090;2023-12-20T09:14:02;19.67;;;7.90;;
4547;SDS011;2286;51.570;7.090;2023-12-20T09:16:30;14.77;;;6.17;;
4547;SDS011;2286;51.570;7.090;2023-12-20T09:18:57;15.33;;;6.10;;
4547;SDS011;2286;51.570;7.090;2023-12-20T09:21:24;19.87;;;6.63;;
4547;SDS011;2286;51.570;7.090;2023-12-20T09:23:52;12.13;;;5.77;;
4547;SDS011;2286;51.570;7.090;2023-12-20T09:26:19;15.00;;;5.83;;
4547;SDS011;2286;51.570;7.090;2023-12-20T09:28:46;15.23;;;6.17;;
4547;SDS011;2286;51.570;7.090;2023-12-20T09:31:13;16.60;;;6.73;;
4547;SDS011;2286;51.570;7.090;2023-12-20T09:33:41;16.53;;;6.17;;
4547;SDS011;2286;51.570;7.090;2023-12-20T09:36:08;15.30;;;6.57;;
4547;SDS011;2286;51.570;7.090;2023-12-20T09:38:35;22.33;;;6.80;;
4547;SDS011;2286;51.570;7.090;2023-12-20T09:41:02;18.33;;;6.87;;
4547;SDS011;2286;51.570;7.090;2023-12-20T09:43:30;17.63;;;6.63;;
4547;SDS011;2286;51.570;7.090;2023-12-20T09:46:00;13.03;;;6.00;;
4547;SDS011;2286;51.570;7.090;2023-12-20T09:48:29;15.30;;;6.97;;
4547;SDS011;2286;51.570;7.090;2023-12-20T09:50:59;19.03;;;7.33;;
4547;SDS011;2286;51.570;7.090;2023-12-20T09:53:26;14.53;;;6.30;;
4547;SDS011;2286;51.570;7.090;2023-12-20T09:55:55;12.20;;;5.73;;
4547;SDS011;2286;51.570;7.090;2023-12-20T09:58:25;15.83;;;6.63;;
4547;SDS011;2286;51.570;7.090;2023-12-20T10:00:52;13.80;;;5.90;;
4547;SDS011;2286;51.570;7.090;2023-12-20T10:03:22;15.07;;;6.13;;
4547;SDS011;2286;51.570;7.090;2023-12-20T10:05:52;14.33;;;5.97;;
4547;SDS011;2286;51.570;7.090;2023-12-20T10:08:24;25.53;;;6.37;;
4547;SDS011;2286;51.570;7.090;2023-12-20T10:10:51;17.40;;;5.97;;
4547;SDS011;2286;51.570;7.090;2023-12-20T10:13:18;18.73;;;7.40;;
4547;SDS011;2286;51.570;7.090;2023-12-20T10:15:45;16.60;;;6.03;;
4547;SDS011;2286;51.570;7.090;2023-12-20T10:18:13;23.20;;;7.17;;
4547;SDS011;2286;51.570;7.090;2023-12-20T10:20:40;14.20;;;6.47;;
4547;SDS011;2286;51.570;7.090;2023-12-20T10:23:08;14.67;;;7.07;;
4547;SDS011;2286;51.570;7.090;2023-12-20T10:25:36;19.70;;;7.53;;
4547;SDS011;2286;51.570;7.090;2023-12-20T10:28:10;16.03;;;7.53;;
4547;SDS011;2286;51.570;7.090;2023-12-20T10:30:38;19.97;;;7.60;;
4547;SDS011;2286;51.570;7.090;2023-12-20T10:33:06;21.63;;;8.80;;
4547;SDS011;2286;51.570;7.090;2023-12-20T10:35:33;17.70;;;7.83;;
4547;SDS011;2286;51.570;7.090;2023-12-20T10:38:02;14.30;;;8.00;;
4547;SDS011;2286;51.570;7.090;2023-12-20T10:40:30;21.83;;;7.13;;
4547;SDS011;2286;51.570;7.090;2023-12-20T10:42:59;19.03;;;7.80;;
4547;SDS011;2286;51.570;7.090;2023-12-20T10:45:28;14.23;;;6.90;;
4547;SDS011;2286;51.570;7.090;2023-12-20T10:47:55;21.70;;;8.30;;
4547;SDS011;2286;51.570;7.090;2023-12-20T10:50:24;18.37;;;7.00;;
4547;SDS011;2286;51.570;7.090;2023-12-20T10:52:52;18.47;;;6.77;;
4547;SDS011;2286;51.570;7.090;2023-12-20T10:55:21;18.73;;;7.40;;
4547;SDS011;2286;51.570;7.090;2023-12-20T10:57:49;19.77;;;6.83;;
4547;SDS011;2286;51.570;7.090;2023-12-20T11:00:19;16.70;;;5.80;;
4547;SDS011;2286;51.570;7.090;2023-12-20T11:02:49;14.10;;;5.70;;
4547;SDS011;2286;51.570;7.090;2023-12-20T11:05:23;16.30;;;5.90;;
4547;SDS011;2286;51.570;7.090;2023-12-20T11:07:58;12.47;;;5.77;;
4547;SDS011;2286;51.570;7.090;2023-12-20T11:10:29;17.37;;;5.23;;
4547;SDS011;2286;51.570;7.090;2023-12-20T11:12:59;12.50;;;5.33;;
4547;SDS011;2286;51.570;7.090;2023-12-20T11:15:35;14.33;;;5.70;;
4547;SDS011;2286;51.570;7.090;2023-12-20T11:18:03;12.90;;;5.60;;
4547;SDS011;2286;51.570;7.090;2023-12-20T11:20:35;13.37;;;5.20;;
4547;SDS011;2286;51.570;7.090;2023-12-20T11:23:03;19.30;;;6.37;;
4547;SDS011;2286;51.570;7.090;2023-12-20T11:25:35;14.53;;;5.17;;
4547;SDS011;2286;51.570;7.090;2023-12-20T11:28:20;19.80;;;6.17;;
4547;SDS011;2286;51.570;7.090;2023-12-20T11:30:50;16.57;;;6.60;;
4547;SDS011;2286;51.570;7.090;2023-12-20T11:33:21;18.80;;;6.13;;
4547;SDS011;2286;51.570;7.090;2023-12-20T11:35:48;16.53;;;7.27;;
4547;SDS011;2286;51.570;7.090;2023-12-20T11:38:15;18.90;;;7.80;;
4547;SDS011;2286;51.570;7.090;2023-12-20T11:40:43;14.90;;;7.20;;
4547;SDS011;2286;51.570;7.090;2023-12-20T11:43:10;18.00;;;7.60;;
4547;SDS011;2286;51.570;7.090;2023-12-20T11:45:37;23.83;;;9.57;;
4547;SDS011;2286;51.570;7.090;2023-12-20T11:48:16;19.07;;;8.70;;
4547;SDS011;2286;51.570;7.090;2023-12-20T11:50:44;15.87;;;8.83;;
4547;SDS011;2286;51.570;7.090;2023-12-20T11:53:11;20.10;;;9.70;;
4547;SDS011;2286;51.570;7.090;2023-12-20T11:55:38;25.33;;;10.30;;
4547;SDS011;2286;51.570;7.090;2023-12-20T11:58:06;21.67;;;9.03;;
4547;SDS011;2286;51.570;7.090;2023-12-20T12:00:34;27.07;;;10.13;;
4547;SDS011;2286;51.570;7.090;2023-12-20T12:03:01;20.10;;;9.07;;
4547;SDS011;2286;51.570;7.090;2023-12-20T12:05:31;18.93;;;8.73;;
4547;SDS011;2286;51.570;7.090;2023-12-20T12:07:59;7.03;;;3.23;;
4547;SDS011;2286;51.570;7.090;2023-12-20T12:10:26;0.40;;;0.40;;
4547;SDS011;2286;51.570;7.090;2023-12-20T12:12:53;0.40;;;0.40;;
4547;SDS011;2286;51.570;7.090;2023-12-20T12:15:21;0.50;;;0.50;;
4547;SDS011;2286;51.570;7.090;2023-12-20T12:17:52;0.30;;;0.30;;
4547;SDS011;2286;51.570;7.090;2023-12-20T12:20:20;0.70;;;0.70;;
4547;SDS011;2286;51.570;7.090;2023-12-20T12:22:58;0.40;;;0.40;;
4547;SDS011;2286;51.570;7.090;2023-12-20T12:25:25;0.83;;;0.83;;
4547;SDS011;2286;51.570;7.090;2023-12-20T12:27:53;0.30;;;0.30;;
4547;SDS011;2286;51.570;7.090;2023-12-20T12:30:20;0.63;;;0.63;;
4547;SDS011;2286;51.570;7.090;2023-12-20T12:32:47;5.80;;;1.90;;
4547;SDS011;2286;51.570;7.090;2023-12-20T12:35:14;1.33;;;1.13;;
4547;SDS011;2286;51.570;7.090;2023-12-20T12:37:41;0.30;;;0.30;;
4547;SDS011;2286;51.570;7.090;2023-12-20T12:40:11;0.60;;;0.57;;
4547;SDS011;2286;51.570;7.090;2023-12-20T12:42:39;0.40;;;0.40;;
4547;SDS011;2286;51.570;7.090;2023-12-20T12:45:07;0.70;;;0.70;;
4547;SDS011;2286;51.570;7.090;2023-12-20T12:47:34;0.40;;;0.40;;
4547;SDS011;2286;51.570;7.090;2023-12-20T12:50:02;0.40;;;0.40;;
4547;SDS011;2286;51.570;7.090;2023-12-20T12:52:29;0.40;;;0.40;;
4547;SDS011;2286;51.570;7.090;2023-12-20T12:54:56;0.70;;;0.70;;
4547;SDS011;2286;51.570;7.090;2023-12-20T12:57:25;1.57;;;1.50;;
4547;SDS011;2286;51.570;7.090;2023-12-20T12:59:52;0.43;;;0.43;;
4547;SDS011;2286;51.570;7.090;2023-12-20T13:02:19;1.40;;;1.30;;
4547;SDS011;2286;51.570;7.090;2023-12-20T13:04:46;0.87;;;0.73;;
4547;SDS011;2286;51.570;7.090;2023-12-20T13:07:13;0.40;;;0.40;;
4547;SDS011;2286;51.570;7.090;2023-12-20T13:09:40;0.40;;;0.40;;
4547;SDS011;2286;51.570;7.090;2023-12-20T13:12:08;1.07;;;0.97;;
4547;SDS011;2286;51.570;7.090;2023-12-20T13:14:36;0.30;;;0.30;;
4547;SDS011;2286;51.570;7.090;2023-12-20T13:17:03;0.30;;;0.30;;
4547;SDS011;2286;51.570;7.090;2023-12-20T13:19:31;0.87;;;0.70;;
4547;SDS011;2286;51.570;7.090;2023-12-20T13:21:58;0.63;;;0.63;;
4547;SDS011;2286;51.570;7.090;2023-12-20T13:24:25;1.03;;;1.03;;
4547;SDS011;2286;51.570;7.090;2023-12-20T13:26:52;0.70;;;0.60;;
4547;SDS011;2286;51.570;7.090;2023-12-20T13:29:19;0.30;;;0.30;;
4547;SDS011;2286;51.570;7.090;2023-12-20T13:31:48;1.07;;;1.07;;
4547;SDS011;2286;51.570;7.090;2023-12-20T13:34:15;2.87;;;2.67;;
4547;SDS011;2286;51.570;7.090;2023-12-20T13:36:43;0.90;;;0.90;;
4547;SDS011;2286;51.570;7.090;2023-12-20T13:39:12;0.40;;;0.40;;
4547;SDS011;2286;51.570;7.090;2023-12-20T13:41:40;0.40;;;0.40;;
4547;SDS011;2286;51.570;7.090;2023-12-20T13:44:07;0.30;;;0.30;;
4547;SDS011;2286;51.570;7.090;2023-12-20T13:46:34;0.40;;;0.30;;
4547;SDS011;2286;51.570;7.090;2023-12-20T13:49:03;0.30;;;0.30;;
4547;SDS011;2286;51.570;7.090;2023-12-20T13:51:31;0.30;;;0.30;;
4547;SDS011;2286;51.570;7.090;2023-12-20T13:53:58;0.60;;;0.60;;
4547;SDS011;2286;51.570;7.090;2023-12-20T13:56:25;8.70;;;2.83;;
4547;SDS011;2286;51.570;7.090;2023-12-20T13:58:52;0.50;;;0.50;;
4547;SDS011;2286;51.570;7.090;2023-12-20T14:01:19;0.30;;;0.30;;
4547;SDS011;2286;51.570;7.090;2023-12-20T14:03:46;3.70;;;2.77;;
4547;SDS011;2286;51.570;7.090;2023-12-20T14:06:14;0.57;;;0.57;;
4547;SDS011;2286;51.570;7.090;2023-12-20T14:08:42;1.17;;;1.17;;
4547;SDS011;2286;51.570;7.090;2023-12-20T14:11:09;1.03;;;1.03;;
4547;SDS011;2286;51.570;7.090;2023-12-20T14:13:37;0.40;;;0.40;;
4547;SDS011;2286;51.570;7.090;2023-12-20T14:16:04;0.70;;;0.70;;
4547;SDS011;2286;51.570;7.090;2023-12-20T14:18:31;0.30;;;0.30;;
4547;SDS011;2286;51.570;7.090;2023-12-20T14:20:58;0.57;;;0.57;;
4547;SDS011;2286;51.570;7.090;2023-12-20T14:23:27;0.60;;;0.60;;
4547;SDS011;2286;51.570;7.090;2023-12-20T14:25:54;0.50;;;0.50;;
4547;SDS011;2286;51.570;7.090;2023-12-20T14:28:23;0.50;;;0.50;;
4547;SDS011;2286;51.570;7.090;2023-12-20T14:30:50;0.50;;;0.50;;
4547;SDS011;2286;51.570;7.090;2023-12-20T14:33:17;0.80;;;0.80;;
4547;SDS011;2286;51.570;7.090;2023-12-20T14:35:46;0.40;;;0.40;;
4547;SDS011;2286;51.570;7.090;2023-12-20T14:38:13;0.43;;;0.43;;
4547;SDS011;2286;51.570;7.090;2023-12-20T14:40:42;0.93;;;0.93;;
4547;SDS011;2286;51.570;7.090;2023-12-20T14:43:09;0.80;;;0.80;;
4547;SDS011;2286;51.570;7.090;2023-12-20T14:45:36;0.53;;;0.53;;
4547;SDS011;2286;51.570;7.090;2023-12-20T14:48:04;0.73;;;0.73;;
4547;SDS011;2286;51.570;7.090;2023-12-20T14:50:31;0.30;;;0.30;;
4547;SDS011;2286;51.570;7.090;2023-12-20T14:52:59;4.53;;;2.80;;
4547;SDS011;2286;51.570;7.090;2023-12-20T14:55:26;1.13;;;0.97;;
4547;SDS011;2286;51.570;7.090;2023-12-20T14:57:56;0.50;;;0.50;;
4547;SDS011;2286;51.570;7.090;2023-12-20T15:00:23;0.40;;;0.30;;
4547;SDS011;2286;51.570;7.090;2023-12-20T15:02:50;6.07;;;1.10;;
4547;SDS011;2286;51.570;7.090;2023-12-20T15:05:19;4.83;;;2.47;;
4547;SDS011;2286;51.570;7.090;2023-12-20T15:07:46;0.90;;;0.90;;